createdAt,value
2019-05-12T00:01:48.106Z,3.33
2019-05-12T00:04:18.922Z,3.80
2019-05-12T00:06:47.875Z,3.47
2019-05-12T00:09:18.650Z,4.53
2019-05-12T00:11:48.435Z,3.83
2019-05-12T00:14:17.966Z,3.93
2019-05-12T00:16:49.045Z,3.60
2019-05-12T00:19:17.927Z,2.70
2019-05-12T00:21:48.318Z,3.57
2019-05-12T00:24:18.686Z,3.90
2019-05-12T00:26:47.777Z,3.80
2019-05-12T00:29:18.519Z,3.83
2019-05-12T00:31:47.807Z,3.70
2019-05-12T00:34:18.428Z,3.60
2019-05-12T00:36:48.518Z,4.00
2019-05-12T00:39:18.917Z,3.50
2019-05-12T00:41:48.169Z,3.13
2019-05-12T00:44:18.389Z,3.67
2019-05-12T00:46:48.734Z,3.43
2019-05-12T00:49:18.705Z,3.20
2019-05-12T00:51:48.555Z,3.70
2019-05-12T00:54:17.863Z,3.40
2019-05-12T00:56:48.202Z,3.10
2019-05-12T00:59:18.759Z,3.33
2019-05-12T01:01:48.198Z,2.63
2019-05-12T01:04:17.588Z,3.20
2019-05-12T01:06:48.664Z,2.87
2019-05-12T01:09:17.629Z,2.70
2019-05-12T01:11:48.155Z,2.53
2019-05-12T01:14:18.474Z,2.70
2019-05-12T01:16:48.616Z,2.57
2019-05-12T01:19:18.505Z,2.60
2019-05-12T01:21:48.115Z,2.87
2019-05-12T01:24:18.669Z,3.00
2019-05-12T01:26:47.609Z,2.50
2019-05-12T01:29:17.621Z,2.60
2019-05-12T01:31:48.673Z,2.97
2019-05-12T01:34:18.195Z,3.03
2019-05-12T01:36:48.353Z,2.83
2019-05-12T01:39:18.725Z,3.93
2019-05-12T01:41:48.111Z,3.80
2019-05-12T01:44:18.353Z,3.30
2019-05-12T01:46:48.355Z,3.13
2019-05-12T01:49:18.731Z,3.97
2019-05-12T01:51:47.695Z,3.47
2019-05-12T01:54:18.712Z,3.77
2019-05-12T01:56:48.387Z,4.00
2019-05-12T01:59:18.496Z,3.67
2019-05-12T02:01:48.788Z,3.87
2019-05-12T02:04:18.117Z,3.50
2019-05-12T02:06:48.514Z,3.63
2019-05-12T02:09:18.911Z,3.83
2019-05-12T02:11:48.330Z,3.50
2019-05-12T02:14:18.323Z,3.40
2019-05-12T02:16:47.760Z,3.43
2019-05-12T02:19:17.880Z,3.60
2019-05-12T02:21:48.571Z,3.63
2019-05-12T02:24:26.804Z,3.37
2019-05-12T02:26:48.672Z,3.90
2019-05-12T02:29:18.293Z,3.50
2019-05-12T02:31:49.812Z,3.40
2019-05-12T02:34:17.122Z,3.40
2019-05-12T02:36:45.714Z,3.43
2019-05-12T02:39:14.963Z,3.50
2019-05-12T02:41:44.969Z,3.80
2019-05-12T02:44:14.975Z,3.20
2019-05-12T02:46:44.639Z,4.00
2019-05-12T02:49:15.633Z,3.27
2019-05-12T02:51:45.555Z,3.30
2019-05-12T02:54:14.982Z,3.30
2019-05-12T02:56:45.085Z,3.03
2019-05-12T02:59:16.282Z,3.20
2019-05-12T03:01:48.126Z,2.67
2019-05-12T03:04:18.388Z,2.93
2019-05-12T03:06:47.936Z,2.23
2019-05-12T03:09:16.521Z,2.13
2019-05-12T03:11:46.033Z,2.80
2019-05-12T03:14:15.606Z,2.63
2019-05-12T03:16:45.400Z,2.67
2019-05-12T03:19:14.996Z,2.77
2019-05-12T03:21:44.326Z,2.50
2019-05-12T03:24:14.497Z,2.70
2019-05-12T03:26:44.986Z,2.67
2019-05-12T03:29:14.781Z,2.70
2019-05-12T03:31:48.852Z,3.30
2019-05-12T03:34:19.361Z,2.57
2019-05-12T03:36:50.868Z,2.93
2019-05-12T03:39:15.136Z,3.60
2019-05-12T03:41:44.607Z,3.50
2019-05-12T03:44:15.012Z,3.43
2019-05-12T03:46:45.680Z,3.13
2019-05-12T03:49:15.365Z,2.77
2019-05-12T03:51:45.655Z,3.20
2019-05-12T03:54:15.450Z,2.83
2019-05-12T03:56:45.005Z,3.03
2019-05-12T03:59:15.181Z,3.10
2019-05-12T04:01:44.988Z,2.85
2019-05-12T04:04:15.156Z,4.00
2019-05-12T04:06:45.462Z,3.70
2019-05-12T04:09:15.466Z,3.83
2019-05-12T04:11:44.674Z,3.37
2019-05-12T04:14:14.707Z,3.80
2019-05-12T04:16:45.176Z,4.00
2019-05-12T04:19:14.793Z,4.42
2019-05-12T04:21:44.636Z,4.13
2019-05-12T04:24:14.267Z,5.03
2019-05-12T04:26:44.918Z,4.27
2019-05-12T04:29:15.416Z,4.60
2019-05-12T04:31:44.353Z,3.40
2019-05-12T04:34:15.753Z,4.03
2019-05-12T04:36:44.929Z,4.62
2019-05-12T04:39:14.732Z,3.60
2019-05-12T04:41:44.757Z,3.77
2019-05-12T04:44:15.227Z,4.00
2019-05-12T04:46:44.972Z,4.90
2019-05-12T04:49:15.727Z,4.27
2019-05-12T04:51:45.233Z,3.90
2019-05-12T04:54:15.183Z,5.00
2019-05-12T04:56:44.708Z,4.65
2019-05-12T04:59:15.780Z,3.83
2019-05-12T05:01:45.389Z,4.55
2019-05-12T05:04:15.549Z,4.15
2019-05-12T05:06:45.016Z,3.93
2019-05-12T05:09:14.528Z,4.00
2019-05-12T05:11:45.110Z,3.10
2019-05-12T05:14:14.591Z,2.52
2019-05-12T05:16:45.112Z,2.70
2019-05-12T05:19:13.965Z,2.60
2019-05-12T05:21:43.771Z,3.67
2019-05-12T05:24:14.218Z,3.33
2019-05-12T05:26:43.591Z,3.33
2019-05-12T05:29:13.503Z,3.03
2019-05-12T05:31:44.200Z,3.30
2019-05-12T05:34:14.641Z,4.37
2019-05-12T05:36:43.347Z,3.47
2019-05-12T05:39:13.836Z,3.25
2019-05-12T05:41:46.543Z,3.20
2019-05-12T05:44:13.904Z,2.80
2019-05-12T05:46:47.737Z,3.85
2019-05-12T05:49:13.357Z,3.92
2019-05-12T05:51:46.769Z,3.97
2019-05-12T05:54:13.747Z,3.83
2019-05-12T05:56:50.699Z,4.03
2019-05-12T05:59:15.081Z,4.00
2019-05-12T06:01:46.880Z,4.10
2019-05-12T06:04:14.688Z,4.50
2019-05-12T06:06:50.578Z,4.30
2019-05-12T06:09:14.250Z,4.70
2019-05-12T06:11:43.807Z,4.00
2019-05-12T06:14:33.953Z,4.70
2019-05-12T06:17:01.685Z,4.05
2019-05-12T06:19:30.261Z,3.95
2019-05-12T06:22:00.637Z,4.75
2019-05-12T06:24:29.506Z,5.17
2019-05-12T06:27:00.829Z,5.00
2019-05-12T06:29:28.797Z,6.50
2019-05-12T06:31:59.974Z,5.13
2019-05-12T06:34:27.639Z,4.87
2019-05-12T06:36:57.264Z,5.37
2019-05-12T06:39:26.572Z,5.40
2019-05-12T06:41:57.215Z,4.90
2019-05-12T06:44:25.630Z,5.55
2019-05-12T06:47:02.217Z,5.08
2019-05-12T06:49:24.786Z,5.12
2019-05-12T06:52:01.283Z,5.70
2019-05-12T06:54:24.792Z,6.35
2019-05-12T06:56:57.852Z,7.17
2019-05-12T06:59:25.105Z,6.23
2019-05-12T07:01:56.100Z,7.00
2019-05-12T07:04:24.322Z,5.97
2019-05-12T07:06:56.381Z,6.13
2019-05-12T07:09:27.967Z,6.33
2019-05-12T07:12:02.793Z,6.50
2019-05-12T07:14:27.147Z,6.47
2019-05-12T07:17:01.813Z,6.30
2019-05-12T07:19:26.276Z,8.47
2019-05-12T07:22:00.100Z,6.62
2019-05-12T07:24:27.053Z,6.70
2019-05-12T07:27:04.224Z,6.33
2019-05-12T07:29:26.002Z,6.80
2019-05-12T07:31:54.875Z,6.95
2019-05-12T07:34:24.014Z,7.12
2019-05-12T07:36:55.606Z,7.13
2019-05-12T07:39:25.095Z,7.40
2019-05-12T07:41:54.958Z,6.40
2019-05-12T07:44:26.094Z,5.87
2019-05-12T07:46:54.726Z,6.30
2019-05-12T07:49:33.964Z,6.60
2019-05-12T07:51:54.181Z,6.20
2019-05-12T07:54:23.574Z,7.33
2019-05-12T07:56:54.004Z,5.93
2019-05-12T07:59:28.283Z,5.83
2019-05-12T08:01:54.972Z,6.10
2019-05-12T08:04:23.917Z,6.17
2019-05-12T08:06:53.830Z,5.10
2019-05-12T08:09:24.079Z,5.40
2019-05-12T08:11:54.034Z,6.07
2019-05-12T08:14:28.540Z,6.70
2019-05-12T08:16:54.346Z,7.00
2019-05-12T08:19:25.717Z,6.37
2019-05-12T08:21:53.773Z,6.60
2019-05-12T08:24:23.677Z,5.80
2019-05-12T08:26:59.713Z,6.30
2019-05-12T08:29:24.333Z,6.60
2019-05-12T08:31:54.896Z,6.47
2019-05-12T08:34:23.792Z,6.93
2019-05-12T08:36:56.759Z,7.27
2019-05-12T08:39:25.777Z,7.00
2019-05-12T08:41:53.487Z,6.70
2019-05-12T08:44:24.842Z,6.70
2019-05-12T08:46:56.420Z,6.50
2019-05-12T08:49:23.457Z,5.43
2019-05-12T08:51:55.767Z,5.80
2019-05-12T08:54:23.302Z,6.75
2019-05-12T08:56:59.230Z,6.05
2019-05-12T08:59:26.634Z,6.87
2019-05-12T09:01:54.070Z,6.80
2019-05-12T09:04:24.715Z,6.83
2019-05-12T09:06:56.419Z,7.27
2019-05-12T09:09:23.752Z,6.37
2019-05-12T09:11:54.272Z,7.50
2019-05-12T09:14:23.890Z,6.43
2019-05-12T09:16:55.934Z,8.17
2019-05-12T09:19:24.864Z,7.60
2019-05-12T09:21:54.220Z,7.03
2019-05-12T09:24:27.273Z,7.47
2019-05-12T09:26:53.812Z,8.20
2019-05-12T09:29:22.489Z,8.03
2019-05-12T09:31:53.101Z,8.70
2019-05-12T09:34:23.400Z,8.60
2019-05-12T09:36:59.378Z,7.97
2019-05-12T09:39:25.773Z,8.47
2019-05-12T09:41:56.686Z,7.60
2019-05-12T09:44:29.163Z,9.25
2019-05-12T09:46:55.463Z,8.97
2019-05-12T09:49:31.375Z,9.10
2019-05-12T09:51:54.436Z,7.17
2019-05-12T09:54:26.216Z,7.80
2019-05-12T09:56:55.399Z,6.60
2019-05-12T09:59:25.854Z,6.97
2019-05-12T10:01:54.239Z,6.30
2019-05-12T10:04:22.778Z,8.40
2019-05-12T10:06:53.336Z,7.00
2019-05-12T10:09:21.566Z,7.70
2019-05-12T10:11:51.829Z,6.53
2019-05-12T10:14:20.252Z,7.50
2019-05-12T10:16:49.802Z,6.50
2019-05-12T10:19:18.518Z,6.97
2019-05-12T10:21:49.123Z,7.80
2019-05-12T10:24:17.411Z,7.60
2019-05-12T10:26:49.421Z,6.83
2019-05-12T10:29:20.321Z,7.67
2019-05-12T10:31:46.424Z,8.07
2019-05-12T10:34:20.424Z,8.70
2019-05-12T10:36:50.156Z,8.33
2019-05-12T10:39:18.932Z,7.77
2019-05-12T10:41:48.401Z,7.70
2019-05-12T10:44:17.031Z,8.07
2019-05-12T10:46:47.312Z,8.20
2019-05-12T10:49:15.857Z,7.50
2019-05-12T10:51:47.461Z,7.33
2019-05-12T10:54:15.744Z,8.87
2019-05-12T10:56:44.412Z,8.10
2019-05-12T10:59:13.383Z,8.43
2019-05-12T11:01:47.131Z,8.37
2019-05-12T11:04:14.344Z,7.57
2019-05-12T11:06:44.770Z,7.80
2019-05-12T11:09:13.933Z,7.60
2019-05-12T11:11:46.813Z,9.27
2019-05-12T11:14:14.277Z,9.90
2019-05-12T11:16:44.581Z,10.13
2019-05-12T11:19:13.749Z,10.93
2019-05-12T11:21:44.318Z,10.27
2019-05-12T11:24:13.869Z,10.43
2019-05-12T11:26:43.291Z,9.70
2019-05-12T11:29:14.022Z,9.77
2019-05-12T11:31:44.142Z,10.20
2019-05-12T11:34:12.414Z,11.33
2019-05-12T11:36:40.931Z,9.90
2019-05-12T11:39:09.484Z,10.10
2019-05-12T11:41:38.057Z,10.07
2019-05-12T11:44:06.643Z,12.03
2019-05-12T11:46:36.383Z,12.50
2019-05-12T11:49:05.073Z,11.07
2019-05-12T11:51:34.150Z,11.30
2019-05-12T11:54:03.624Z,11.13
2019-05-12T11:56:33.581Z,11.60
2019-05-12T11:59:02.408Z,11.63
2019-05-12T12:01:31.252Z,11.10
2019-05-12T12:03:59.850Z,10.00
2019-05-12T12:06:28.344Z,9.47
2019-05-12T12:08:56.929Z,10.40
2019-05-12T12:11:27.987Z,10.47
2019-05-12T12:14:00.487Z,11.07
2019-05-12T12:16:25.905Z,10.13
2019-05-12T12:19:02.168Z,9.87
2019-05-12T12:21:24.625Z,8.97
2019-05-12T12:23:53.564Z,8.50
2019-05-12T12:26:29.998Z,8.57
2019-05-12T12:28:56.249Z,7.90
2019-05-12T12:31:29.426Z,8.30
2019-05-12T12:33:55.089Z,8.90
2019-05-12T12:36:23.768Z,8.80
2019-05-12T12:38:53.581Z,7.70
2019-05-12T12:41:23.723Z,9.37
2019-05-12T12:43:54.083Z,7.57
2019-05-12T12:46:24.453Z,7.30
2019-05-12T12:48:54.263Z,8.47
2019-05-12T12:51:23.641Z,8.20
2019-05-12T12:53:54.125Z,8.10
2019-05-12T12:56:28.296Z,8.70
2019-05-12T12:58:55.262Z,8.60
2019-05-12T13:01:28.632Z,7.77
2019-05-12T13:03:53.718Z,8.03
2019-05-12T13:06:23.854Z,8.00
2019-05-12T13:08:54.139Z,7.83
2019-05-12T13:11:33.178Z,7.67
2019-05-12T13:13:53.562Z,7.83
2019-05-12T13:16:23.834Z,8.00
2019-05-12T13:18:53.854Z,8.60
2019-05-12T13:21:22.641Z,8.03
2019-05-12T13:23:51.270Z,8.87
2019-05-12T13:26:19.797Z,8.70
2019-05-12T13:28:53.403Z,9.20
2019-05-12T13:31:18.587Z,7.93
2019-05-12T13:33:49.439Z,8.57
2019-05-12T13:36:17.351Z,8.90
2019-05-12T13:38:45.935Z,7.77
2019-05-12T13:41:15.894Z,7.40
2019-05-12T13:43:44.990Z,9.37
2019-05-12T13:46:13.500Z,9.00
2019-05-12T13:48:43.406Z,10.30
2019-05-12T13:51:15.302Z,9.07
2019-05-12T13:53:46.371Z,10.00
2019-05-12T13:56:13.702Z,10.00
2019-05-12T13:58:43.646Z,10.70
2019-05-12T14:01:19.947Z,10.10
2019-05-12T14:03:46.255Z,9.93
2019-05-12T14:06:13.912Z,9.47
2019-05-12T14:08:44.518Z,9.80
2019-05-12T14:11:13.121Z,8.87
2019-05-12T14:13:41.691Z,10.90
2019-05-12T14:16:10.179Z,13.80
2019-05-12T14:18:38.688Z,10.90
2019-05-12T14:21:07.201Z,9.47
2019-05-12T14:23:35.930Z,9.33
2019-05-12T14:26:07.511Z,8.23
2019-05-12T14:28:39.492Z,9.00
2019-05-12T14:31:05.047Z,9.97
2019-05-12T14:33:35.734Z,9.10
2019-05-12T14:36:04.194Z,9.90
2019-05-12T14:38:33.828Z,10.87
2019-05-12T14:41:09.579Z,11.20
2019-05-12T14:43:34.057Z,9.37
2019-05-12T14:46:06.156Z,11.17
2019-05-12T14:48:33.569Z,9.73
2019-05-12T14:51:03.445Z,11.60
2019-05-12T14:53:32.909Z,10.50
2019-05-12T14:56:03.846Z,10.70
2019-05-12T14:58:33.824Z,11.40
2019-05-12T15:01:03.970Z,11.90
2019-05-12T15:03:34.274Z,11.70
2019-05-12T15:06:03.787Z,11.50
2019-05-12T15:08:37.193Z,12.10
2019-05-12T15:11:03.927Z,11.23
2019-05-12T15:13:34.309Z,10.13
2019-05-12T15:16:03.002Z,11.00
2019-05-12T15:18:31.529Z,11.73
2019-05-12T15:21:00.117Z,11.30
2019-05-12T15:23:32.669Z,12.03
2019-05-12T15:25:58.973Z,11.80
2019-05-12T15:28:27.493Z,11.30
2019-05-12T15:30:56.051Z,12.57
2019-05-12T15:33:27.018Z,12.53
2019-05-12T15:35:55.600Z,12.13
2019-05-12T15:38:24.245Z,14.53
2019-05-12T15:40:53.865Z,12.10
2019-05-12T15:43:24.415Z,15.80
2019-05-12T15:45:55.265Z,12.63
2019-05-12T15:48:25.940Z,13.67
2019-05-12T15:50:54.092Z,11.63
2019-05-12T15:53:26.857Z,12.13
2019-05-12T15:55:54.300Z,13.27
2019-05-12T15:58:24.795Z,14.60
2019-05-12T16:00:54.449Z,11.63
2019-05-12T16:03:26.048Z,12.70
2019-05-12T16:05:53.827Z,12.20
2019-05-12T16:08:24.332Z,12.20
2019-05-12T16:10:53.550Z,11.37
2019-05-12T16:13:24.362Z,10.27
2019-05-12T16:15:57.685Z,11.47
2019-05-12T16:18:23.921Z,12.70
2019-05-12T16:20:53.640Z,12.13
2019-05-12T16:23:28.339Z,13.20
2019-05-12T16:25:54.115Z,12.80
2019-05-12T16:28:25.952Z,11.20
2019-05-12T16:30:53.624Z,11.23
2019-05-12T16:33:22.294Z,12.00
2019-05-12T16:35:50.858Z,11.53
2019-05-12T16:38:20.000Z,9.93
2019-05-12T16:40:49.990Z,11.60
2019-05-12T16:43:18.634Z,10.00
2019-05-12T16:45:47.281Z,11.50
2019-05-12T16:48:29.352Z,9.30
2019-05-12T16:50:46.127Z,9.37
2019-05-12T16:53:22.012Z,9.17
2019-05-12T16:55:49.633Z,9.00
2019-05-12T16:58:15.127Z,9.00
2019-05-12T17:00:45.127Z,9.90
2019-05-12T17:03:14.605Z,9.20
2019-05-12T17:05:44.391Z,8.70
2019-05-12T17:08:13.934Z,8.37
2019-05-12T17:10:49.137Z,9.23
2019-05-12T17:13:13.325Z,9.23
2019-05-12T17:15:43.397Z,9.37
2019-05-12T17:18:13.571Z,9.60
2019-05-12T17:20:47.129Z,9.50
2019-05-12T17:23:13.855Z,9.37
2019-05-12T17:25:42.740Z,9.73
2019-05-12T17:28:13.209Z,9.67
2019-05-12T17:30:43.557Z,10.10
2019-05-12T17:33:15.872Z,9.93
2019-05-12T17:35:44.534Z,10.10
2019-05-12T17:38:19.892Z,9.53
2019-05-12T17:40:44.107Z,9.93
2019-05-12T17:43:12.881Z,9.97
2019-05-12T17:45:41.434Z,11.63
2019-05-12T17:48:09.970Z,10.07
2019-05-12T17:50:40.551Z,10.30
2019-05-12T17:53:08.791Z,10.27
2019-05-12T17:55:42.592Z,11.20
2019-05-12T17:58:07.651Z,9.30
2019-05-12T18:00:41.222Z,9.50
2019-05-12T18:03:20.423Z,10.90
2019-05-12T18:05:36.968Z,9.60
2019-05-12T18:08:05.519Z,10.17
2019-05-12T18:10:37.952Z,9.00
2019-05-12T18:13:04.508Z,10.33
2019-05-12T18:15:37.916Z,10.80
2019-05-12T18:18:04.059Z,10.60
2019-05-12T18:20:40.067Z,11.20
2019-05-12T18:23:04.374Z,11.07
2019-05-12T18:25:33.076Z,12.57
2019-05-12T18:28:03.790Z,12.20
2019-05-12T18:30:31.876Z,11.50
2019-05-12T18:33:04.351Z,12.33
2019-05-12T18:35:30.771Z,11.63
2019-05-12T18:37:59.350Z,12.10
2019-05-12T18:40:28.315Z,12.87
2019-05-12T18:42:56.924Z,12.60
2019-05-12T18:45:25.632Z,12.67
2019-05-12T18:47:54.250Z,13.40
2019-05-12T18:50:27.133Z,12.27
2019-05-12T18:52:53.466Z,12.50
2019-05-12T18:55:23.512Z,12.27
2019-05-12T18:57:54.389Z,12.40
2019-05-12T19:00:24.397Z,12.70
2019-05-12T19:02:54.500Z,13.23
2019-05-12T19:05:30.323Z,12.60
2019-05-12T19:07:54.405Z,13.30
2019-05-12T19:10:24.091Z,13.17
2019-05-12T19:13:01.236Z,12.87
2019-05-12T19:15:23.407Z,11.60
2019-05-12T19:17:54.018Z,13.10
2019-05-12T19:20:24.053Z,13.37
2019-05-12T19:22:59.329Z,11.50
2019-05-12T19:25:30.179Z,14.53
2019-05-12T19:28:05.957Z,14.10
2019-05-12T19:30:27.690Z,13.93
2019-05-12T19:33:00.097Z,13.60
2019-05-12T19:35:26.503Z,13.50
2019-05-12T19:37:55.077Z,13.53
2019-05-12T19:40:23.631Z,13.53
2019-05-12T19:42:54.726Z,14.07
2019-05-12T19:45:24.815Z,13.23
2019-05-12T19:47:53.541Z,13.90
2019-05-12T19:50:22.209Z,11.50
2019-05-12T19:52:50.840Z,12.17
2019-05-12T19:55:20.292Z,10.67
2019-05-12T19:57:50.193Z,11.33
2019-05-12T20:00:19.541Z,11.73
2019-05-12T20:02:48.323Z,10.57
2019-05-12T20:05:17.720Z,11.37
2019-05-12T20:07:46.359Z,10.63
2019-05-12T20:10:16.567Z,10.90
2019-05-12T20:12:48.771Z,9.90
2019-05-12T20:15:15.845Z,10.40
2019-05-12T20:17:44.771Z,12.67
2019-05-12T20:20:17.722Z,11.60
2019-05-12T20:22:44.829Z,11.50
2019-05-12T20:25:14.589Z,10.00
2019-05-12T20:27:44.567Z,11.03
2019-05-12T20:30:20.447Z,11.10
2019-05-12T20:32:44.852Z,10.57
2019-05-12T20:35:14.602Z,11.40
2019-05-12T20:37:52.814Z,9.80
2019-05-12T20:40:14.360Z,10.20
2019-05-12T20:42:56.779Z,10.67
2019-05-12T20:45:14.592Z,10.00
2019-05-12T20:47:45.149Z,10.10
2019-05-12T20:50:14.980Z,10.00
2019-05-12T20:52:49.647Z,10.60
2019-05-12T20:55:14.872Z,10.40
2019-05-12T20:57:51.799Z,10.90
2019-05-12T21:00:14.696Z,10.03
2019-05-12T21:02:44.216Z,10.90
2019-05-12T21:05:16.475Z,10.90
2019-05-12T21:07:44.441Z,10.93
2019-05-12T21:10:14.664Z,11.17
2019-05-12T21:12:48.929Z,10.87
2019-05-12T21:15:20.271Z,12.47
2019-05-12T21:17:58.525Z,11.83
2019-05-12T21:20:18.356Z,11.50
2019-05-12T21:22:54.995Z,11.40
2019-05-12T21:25:23.619Z,11.97
2019-05-12T21:28:07.703Z,11.97
2019-05-12T21:33:05.739Z,11.80
2019-05-12T21:35:40.847Z,10.27
2019-05-12T21:38:18.787Z,11.23
2019-05-12T21:40:46.625Z,12.60
2019-05-12T21:43:15.308Z,12.00
2019-05-12T21:45:43.851Z,12.20
2019-05-12T21:48:15.190Z,10.40
2019-05-12T21:50:44.287Z,12.10
2019-05-12T21:53:19.174Z,10.70
2019-05-12T21:55:44.338Z,12.40
2019-05-12T21:58:15.319Z,12.10
2019-05-12T22:00:50.410Z,12.00
2019-05-12T22:03:17.844Z,12.50
2019-05-12T22:05:51.595Z,12.20
2019-05-12T22:08:22.204Z,12.80
2019-05-12T22:10:48.574Z,12.90
2019-05-12T22:13:18.213Z,12.53
2019-05-12T22:15:51.419Z,13.67
2019-05-12T22:18:17.057Z,13.80
2019-05-12T22:20:46.620Z,14.67
2019-05-12T22:23:15.375Z,13.63
2019-05-12T22:25:49.220Z,13.20
2019-05-12T22:28:14.236Z,12.73
2019-05-12T22:30:43.831Z,13.73
2019-05-12T22:33:13.817Z,12.93
2019-05-12T22:35:44.350Z,12.80
2019-05-12T22:38:16.602Z,13.93
2019-05-12T22:40:43.601Z,13.43
2019-05-12T22:43:14.113Z,12.77
2019-05-12T22:45:44.748Z,13.00
2019-05-12T22:48:12.657Z,12.57
2019-05-12T22:50:43.328Z,13.33
2019-05-12T22:53:13.408Z,12.80
2019-05-12T22:55:41.705Z,12.10
2019-05-12T22:58:20.672Z,11.80
2019-05-12T23:00:44.307Z,12.77
2019-05-12T23:03:15.006Z,13.97
2019-05-12T23:05:43.020Z,13.53
2019-05-12T23:08:13.824Z,13.07
2019-05-12T23:10:51.260Z,12.40
2019-05-12T23:13:13.648Z,13.20
2019-05-12T23:15:45.175Z,14.50
2019-05-12T23:18:13.748Z,14.50
2019-05-12T23:20:43.844Z,14.73
2019-05-12T23:23:15.337Z,13.90
2019-05-12T23:25:44.113Z,13.55
2019-05-12T23:28:12.774Z,15.18
2019-05-12T23:30:43.809Z,15.48
2019-05-12T23:33:13.924Z,16.25
2019-05-12T23:35:44.204Z,14.18
2019-05-12T23:38:18.711Z,14.15
2019-05-12T23:40:43.358Z,15.35
2019-05-12T23:43:14.322Z,14.50
2019-05-12T23:45:44.313Z,14.10
2019-05-12T23:48:14.277Z,13.63
2019-05-12T23:50:43.858Z,12.97
2019-05-12T23:53:14.036Z,14.07
2019-05-12T23:55:43.825Z,14.33
2019-05-12T23:58:14.507Z,14.87
